sensor_id;sensor_type;location;lat;lon;timestamp;P1;durP1;ratioP1;P2;durP2;ratioP2
2061;SDS011;11070;51.336;12.340;2022-12-07T00:03:34;18.50;;;12.07;;
2061;SDS011;11070;51.336;12.340;2022-12-07T00:06:02;19.90;;;12.45;;
2061;SDS011;11070;51.336;12.340;2022-12-07T00:08:29;22.67;;;12.98;;
2061;SDS011;11070;51.336;12.340;2022-12-07T00:11:00;18.30;;;12.23;;
2061;SDS011;11070;51.336;12.340;2022-12-07T00:13:27;18.50;;;12.10;;
2061;SDS011;11070;51.336;12.340;2022-12-07T00:15:52;18.90;;;12.02;;
2061;SDS011;11070;51.336;12.340;2022-12-07T00:18:18;21.73;;;12.13;;
2061;SDS011;11070;51.336;12.340;2022-12-07T00:20:44;19.03;;;12.60;;
2061;SDS011;11070;51.336;12.340;2022-12-07T00:23:09;18.73;;;11.83;;
2061;SDS011;11070;51.336;12.340;2022-12-07T00:25:35;20.43;;;12.50;;
2061;SDS011;11070;51.336;12.340;2022-12-07T00:28:01;19.53;;;12.80;;
2061;SDS011;11070;51.336;12.340;2022-12-07T00:30:26;21.90;;;13.60;;
2061;SDS011;11070;51.336;12.340;2022-12-07T00:32:52;22.73;;;12.90;;
2061;SDS011;11070;51.336;12.340;2022-12-07T00:35:17;22.87;;;13.20;;
2061;SDS011;11070;51.336;12.340;2022-12-07T00:37:43;21.37;;;12.63;;
2061;SDS011;11070;51.336;12.340;2022-12-07T00:40:09;23.00;;;12.97;;
2061;SDS011;11070;51.336;12.340;2022-12-07T00:42:35;22.52;;;13.57;;
2061;SDS011;11070;51.336;12.340;2022-12-07T00:45:00;20.03;;;13.37;;
2061;SDS011;11070;51.336;12.340;2022-12-07T00:47:26;23.43;;;14.33;;
2061;SDS011;11070;51.336;12.340;2022-12-07T00:49:51;23.37;;;13.80;;
2061;SDS011;11070;51.336;12.340;2022-12-07T00:52:17;22.87;;;14.90;;
2061;SDS011;11070;51.336;12.340;2022-12-07T00:54:43;21.20;;;13.10;;
2061;SDS011;11070;51.336;12.340;2022-12-07T00:57:08;24.50;;;15.17;;
2061;SDS011;11070;51.336;12.340;2022-12-07T00:59:34;23.90;;;15.20;;
2061;SDS011;11070;51.336;12.340;2022-12-07T01:02:00;23.83;;;14.10;;
2061;SDS011;11070;51.336;12.340;2022-12-07T01:04:25;22.77;;;13.77;;
2061;SDS011;11070;51.336;12.340;2022-12-07T01:06:53;26.65;;;15.85;;
2061;SDS011;11070;51.336;12.340;2022-12-07T01:09:18;22.70;;;15.20;;
2061;SDS011;11070;51.336;12.340;2022-12-07T01:11:44;27.00;;;16.07;;
2061;SDS011;11070;51.336;12.340;2022-12-07T01:14:09;21.27;;;14.33;;
2061;SDS011;11070;51.336;12.340;2022-12-07T01:16:35;26.17;;;15.40;;
2061;SDS011;11070;51.336;12.340;2022-12-07T01:19:03;22.55;;;14.05;;
2061;SDS011;11070;51.336;12.340;2022-12-07T01:21:30;21.45;;;14.00;;
2061;SDS011;11070;51.336;12.340;2022-12-07T01:24:03;21.65;;;14.00;;
2061;SDS011;11070;51.336;12.340;2022-12-07T01:26:30;22.55;;;13.23;;
2061;SDS011;11070;51.336;12.340;2022-12-07T01:28:56;25.53;;;14.20;;
2061;SDS011;11070;51.336;12.340;2022-12-07T01:31:24;21.23;;;13.20;;
2061;SDS011;11070;51.336;12.340;2022-12-07T01:33:53;21.83;;;13.75;;
2061;SDS011;11070;51.336;12.340;2022-12-07T01:36:24;20.83;;;13.27;;
2061;SDS011;11070;51.336;12.340;2022-12-07T01:38:53;24.70;;;14.02;;
2061;SDS011;11070;51.336;12.340;2022-12-07T01:41:21;23.60;;;13.80;;
2061;SDS011;11070;51.336;12.340;2022-12-07T01:46:55;22.88;;;13.95;;
2061;SDS011;11070;51.336;12.340;2022-12-07T01:49:32;20.27;;;12.70;;
2061;SDS011;11070;51.336;12.340;2022-12-07T01:55:04;21.52;;;12.13;;
2061;SDS011;11070;51.336;12.340;2022-12-07T01:57:35;21.30;;;13.88;;
2061;SDS011;11070;51.336;12.340;2022-12-07T02:00:05;21.88;;;12.52;;
2061;SDS011;11070;51.336;12.340;2022-12-07T02:02:33;20.08;;;13.00;;
2061;SDS011;11070;51.336;12.340;2022-12-07T02:05:03;20.83;;;12.60;;
2061;SDS011;11070;51.336;12.340;2022-12-07T02:07:29;22.02;;;13.02;;
2061;SDS011;11070;51.336;12.340;2022-12-07T02:09:57;19.67;;;13.07;;
2061;SDS011;11070;51.336;12.340;2022-12-07T02:12:36;21.75;;;12.65;;
2061;SDS011;11070;51.336;12.340;2022-12-07T02:15:02;19.23;;;12.50;;
2061;SDS011;11070;51.336;12.340;2022-12-07T02:17:30;20.77;;;13.30;;
2061;SDS011;11070;51.336;12.340;2022-12-07T02:20:13;22.65;;;13.40;;
2061;SDS011;11070;51.336;12.340;2022-12-07T02:29:10;21.67;;;12.82;;
2061;SDS011;11070;51.336;12.340;2022-12-07T02:32:31;20.17;;;12.35;;
2061;SDS011;11070;51.336;12.340;2022-12-07T02:34:59;20.17;;;13.20;;
2061;SDS011;11070;51.336;12.340;2022-12-07T02:46:59;20.23;;;12.02;;
2061;SDS011;11070;51.336;12.340;2022-12-07T02:49:00;21.38;;;12.38;;
2061;SDS011;11070;51.336;12.340;2022-12-07T02:51:31;22.13;;;12.60;;
2061;SDS011;11070;51.336;12.340;2022-12-07T02:53:58;20.50;;;12.70;;
2061;SDS011;11070;51.336;12.340;2022-12-07T02:56:30;19.55;;;11.20;;
2061;SDS011;11070;51.336;12.340;2022-12-07T03:04:27;20.92;;;12.23;;
2061;SDS011;11070;51.336;12.340;2022-12-07T03:07:00;21.40;;;11.98;;
2061;SDS011;11070;51.336;12.340;2022-12-07T03:10:07;18.55;;;10.77;;
2061;SDS011;11070;51.336;12.340;2022-12-07T03:12:45;16.15;;;10.23;;
2061;SDS011;11070;51.336;12.340;2022-12-07T03:17:58;18.77;;;11.32;;
2061;SDS011;11070;51.336;12.340;2022-12-07T03:20:28;17.65;;;10.80;;
2061;SDS011;11070;51.336;12.340;2022-12-07T03:22:56;16.52;;;9.95;;
2061;SDS011;11070;51.336;12.340;2022-12-07T03:25:23;15.88;;;10.73;;
2061;SDS011;11070;51.336;12.340;2022-12-07T03:27:57;20.55;;;10.27;;
2061;SDS011;11070;51.336;12.340;2022-12-07T03:30:33;19.15;;;11.60;;
2061;SDS011;11070;51.336;12.340;2022-12-07T03:33:15;17.13;;;10.75;;
2061;SDS011;11070;51.336;12.340;2022-12-07T03:36:01;16.92;;;10.07;;
2061;SDS011;11070;51.336;12.340;2022-12-07T03:38:45;15.35;;;9.50;;
2061;SDS011;11070;51.336;12.340;2022-12-07T03:41:33;17.65;;;10.63;;
2061;SDS011;11070;51.336;12.340;2022-12-07T03:44:02;17.45;;;10.73;;
2061;SDS011;11070;51.336;12.340;2022-12-07T03:49:25;18.27;;;10.85;;
2061;SDS011;11070;51.336;12.340;2022-12-07T03:54:41;17.83;;;10.63;;
2061;SDS011;11070;51.336;12.340;2022-12-07T03:57:24;15.65;;;9.93;;
2061;SDS011;11070;51.336;12.340;2022-12-07T03:59:51;18.20;;;10.48;;
2061;SDS011;11070;51.336;12.340;2022-12-07T04:02:19;17.63;;;10.68;;
2061;SDS011;11070;51.336;12.340;2022-12-07T04:04:47;17.30;;;10.00;;
2061;SDS011;11070;51.336;12.340;2022-12-07T04:07:12;15.87;;;10.70;;
2061;SDS011;11070;51.336;12.340;2022-12-07T04:09:38;14.00;;;9.40;;
2061;SDS011;11070;51.336;12.340;2022-12-07T04:12:04;17.02;;;10.32;;
2061;SDS011;11070;51.336;12.340;2022-12-07T04:14:30;17.93;;;11.10;;
2061;SDS011;11070;51.336;12.340;2022-12-07T04:16:56;14.40;;;9.80;;
2061;SDS011;11070;51.336;12.340;2022-12-07T04:19:24;18.33;;;10.88;;
2061;SDS011;11070;51.336;12.340;2022-12-07T04:21:54;18.63;;;10.93;;
2061;SDS011;11070;51.336;12.340;2022-12-07T04:24:21;18.27;;;11.32;;
2061;SDS011;11070;51.336;12.340;2022-12-07T04:26:47;16.27;;;10.60;;
2061;SDS011;11070;51.336;12.340;2022-12-07T04:29:12;15.60;;;9.60;;
2061;SDS011;11070;51.336;12.340;2022-12-07T04:31:39;15.13;;;9.55;;
2061;SDS011;11070;51.336;12.340;2022-12-07T04:34:06;15.43;;;9.95;;
2061;SDS011;11070;51.336;12.340;2022-12-07T04:36:32;14.75;;;9.38;;
2061;SDS011;11070;51.336;12.340;2022-12-07T04:38:58;13.70;;;9.35;;
2061;SDS011;11070;51.336;12.340;2022-12-07T04:41:24;16.20;;;9.83;;
2061;SDS011;11070;51.336;12.340;2022-12-07T04:43:54;16.52;;;10.15;;
2061;SDS011;11070;51.336;12.340;2022-12-07T04:46:21;15.98;;;9.35;;
2061;SDS011;11070;51.336;12.340;2022-12-07T04:48:48;15.00;;;9.82;;
2061;SDS011;11070;51.336;12.340;2022-12-07T04:51:15;15.35;;;9.85;;
2061;SDS011;11070;51.336;12.340;2022-12-07T04:53:49;14.27;;;10.02;;
2061;SDS011;11070;51.336;12.340;2022-12-07T04:56:15;13.93;;;9.27;;
2061;SDS011;11070;51.336;12.340;2022-12-07T04:58:42;12.88;;;9.15;;
2061;SDS011;11070;51.336;12.340;2022-12-07T05:01:09;14.30;;;9.20;;
2061;SDS011;11070;51.336;12.340;2022-12-07T05:03:36;14.57;;;9.38;;
2061;SDS011;11070;51.336;12.340;2022-12-07T05:06:03;13.20;;;9.52;;
2061;SDS011;11070;51.336;12.340;2022-12-07T05:08:29;16.77;;;9.10;;
2061;SDS011;11070;51.336;12.340;2022-12-07T05:10:55;14.33;;;9.83;;
2061;SDS011;11070;51.336;12.340;2022-12-07T05:13:21;16.30;;;9.57;;
2061;SDS011;11070;51.336;12.340;2022-12-07T05:15:47;16.00;;;9.87;;
2061;SDS011;11070;51.336;12.340;2022-12-07T05:18:13;14.60;;;9.65;;
2061;SDS011;11070;51.336;12.340;2022-12-07T05:20:39;14.82;;;9.93;;
2061;SDS011;11070;51.336;12.340;2022-12-07T05:23:05;15.07;;;9.70;;
2061;SDS011;11070;51.336;12.340;2022-12-07T05:25:31;14.70;;;9.73;;
2061;SDS011;11070;51.336;12.340;2022-12-07T05:27:57;15.97;;;10.77;;
2061;SDS011;11070;51.336;12.340;2022-12-07T05:30:24;17.35;;;11.15;;
2061;SDS011;11070;51.336;12.340;2022-12-07T05:32:50;18.25;;;11.50;;
2061;SDS011;11070;51.336;12.340;2022-12-07T05:35:17;15.57;;;10.50;;
2061;SDS011;11070;51.336;12.340;2022-12-07T05:37:43;16.85;;;10.70;;
2061;SDS011;11070;51.336;12.340;2022-12-07T05:40:09;15.43;;;10.50;;
2061;SDS011;11070;51.336;12.340;2022-12-07T05:42:36;19.63;;;11.82;;
2061;SDS011;11070;51.336;12.340;2022-12-07T05:45:02;17.77;;;11.20;;
2061;SDS011;11070;51.336;12.340;2022-12-07T05:47:28;18.25;;;11.55;;
2061;SDS011;11070;51.336;12.340;2022-12-07T05:49:54;19.23;;;11.87;;
2061;SDS011;11070;51.336;12.340;2022-12-07T05:52:20;19.07;;;11.93;;
2061;SDS011;11070;51.336;12.340;2022-12-07T05:54:46;20.50;;;13.02;;
2061;SDS011;11070;51.336;12.340;2022-12-07T05:57:12;19.00;;;12.30;;
2061;SDS011;11070;51.336;12.340;2022-12-07T05:59:38;18.67;;;12.13;;
2061;SDS011;11070;51.336;12.340;2022-12-07T06:02:05;18.83;;;11.30;;
2061;SDS011;11070;51.336;12.340;2022-12-07T06:04:33;20.75;;;12.55;;
2061;SDS011;11070;51.336;12.340;2022-12-07T06:07:00;20.25;;;12.82;;
2061;SDS011;11070;51.336;12.340;2022-12-07T06:09:27;19.60;;;13.00;;
2061;SDS011;11070;51.336;12.340;2022-12-07T06:11:53;22.05;;;13.32;;
2061;SDS011;11070;51.336;12.340;2022-12-07T06:14:38;21.38;;;13.40;;
2061;SDS011;11070;51.336;12.340;2022-12-07T06:17:05;20.92;;;13.52;;
2061;SDS011;11070;51.336;12.340;2022-12-07T06:19:31;23.45;;;14.40;;
2061;SDS011;11070;51.336;12.340;2022-12-07T06:21:58;22.25;;;14.20;;
2061;SDS011;11070;51.336;12.340;2022-12-07T06:24:24;23.80;;;13.80;;
2061;SDS011;11070;51.336;12.340;2022-12-07T06:26:50;23.17;;;14.88;;
2061;SDS011;11070;51.336;12.340;2022-12-07T06:29:16;21.07;;;12.87;;
2061;SDS011;11070;51.336;12.340;2022-12-07T06:31:43;24.92;;;15.38;;
2061;SDS011;11070;51.336;12.340;2022-12-07T06:34:10;21.23;;;14.20;;
2061;SDS011;11070;51.336;12.340;2022-12-07T06:36:37;24.45;;;14.65;;
2061;SDS011;11070;51.336;12.340;2022-12-07T06:39:03;22.63;;;14.30;;
2061;SDS011;11070;51.336;12.340;2022-12-07T06:41:29;24.80;;;14.90;;
2061;SDS011;11070;51.336;12.340;2022-12-07T06:43:55;24.58;;;15.30;;
2061;SDS011;11070;51.336;12.340;2022-12-07T06:46:21;27.13;;;16.47;;
2061;SDS011;11070;51.336;12.340;2022-12-07T06:48:47;27.40;;;16.87;;
2061;SDS011;11070;51.336;12.340;2022-12-07T06:51:12;28.50;;;16.20;;
2061;SDS011;11070;51.336;12.340;2022-12-07T06:53:38;28.33;;;15.73;;
2061;SDS011;11070;51.336;12.340;2022-12-07T06:56:04;26.53;;;16.20;;
2061;SDS011;11070;51.336;12.340;2022-12-07T06:58:30;28.83;;;16.10;;
2061;SDS011;11070;51.336;12.340;2022-12-07T07:00:56;27.20;;;16.57;;
2061;SDS011;11070;51.336;12.340;2022-12-07T07:03:22;28.30;;;16.70;;
2061;SDS011;11070;51.336;12.340;2022-12-07T07:05:48;27.67;;;16.73;;
2061;SDS011;11070;51.336;12.340;2022-12-07T07:08:14;28.15;;;17.38;;
2061;SDS011;11070;51.336;12.340;2022-12-07T07:10:40;26.65;;;16.50;;
2061;SDS011;11070;51.336;12.340;2022-12-07T07:13:06;25.92;;;15.32;;
2061;SDS011;11070;51.336;12.340;2022-12-07T07:15:32;26.42;;;15.45;;
2061;SDS011;11070;51.336;12.340;2022-12-07T07:17:58;30.33;;;18.45;;
2061;SDS011;11070;51.336;12.340;2022-12-07T07:20:24;23.05;;;15.60;;
2061;SDS011;11070;51.336;12.340;2022-12-07T07:22:50;32.00;;;20.30;;
2061;SDS011;11070;51.336;12.340;2022-12-07T07:25:19;27.98;;;16.45;;
2061;SDS011;11070;51.336;12.340;2022-12-07T07:27:45;24.93;;;15.80;;
2061;SDS011;11070;51.336;12.340;2022-12-07T07:30:11;24.90;;;15.67;;
2061;SDS011;11070;51.336;12.340;2022-12-07T07:32:37;23.85;;;15.07;;
2061;SDS011;11070;51.336;12.340;2022-12-07T07:35:02;22.53;;;15.13;;
2061;SDS011;11070;51.336;12.340;2022-12-07T07:37:28;22.52;;;14.38;;
2061;SDS011;11070;51.336;12.340;2022-12-07T07:39:54;24.17;;;15.83;;
2061;SDS011;11070;51.336;12.340;2022-12-07T07:42:20;23.13;;;14.63;;
2061;SDS011;11070;51.336;12.340;2022-12-07T07:44:45;25.40;;;15.97;;
2061;SDS011;11070;51.336;12.340;2022-12-07T07:47:11;24.20;;;15.57;;
2061;SDS011;11070;51.336;12.340;2022-12-07T07:49:37;24.27;;;13.90;;
2061;SDS011;11070;51.336;12.340;2022-12-07T07:52:02;25.60;;;15.23;;
2061;SDS011;11070;51.336;12.340;2022-12-07T07:54:29;21.77;;;14.20;;
2061;SDS011;11070;51.336;12.340;2022-12-07T07:56:55;22.20;;;14.97;;
2061;SDS011;11070;51.336;12.340;2022-12-07T07:59:21;20.40;;;13.23;;
2061;SDS011;11070;51.336;12.340;2022-12-07T08:01:47;23.90;;;14.33;;
2061;SDS011;11070;51.336;12.340;2022-12-07T08:04:14;22.05;;;14.00;;
2061;SDS011;11070;51.336;12.340;2022-12-07T08:06:39;19.83;;;13.30;;
2061;SDS011;11070;51.336;12.340;2022-12-07T08:09:07;18.13;;;12.38;;
2061;SDS011;11070;51.336;12.340;2022-12-07T08:11:33;20.45;;;12.55;;
2061;SDS011;11070;51.336;12.340;2022-12-07T08:13:59;16.88;;;11.40;;
2061;SDS011;11070;51.336;12.340;2022-12-07T08:16:25;18.58;;;12.00;;
2061;SDS011;11070;51.336;12.340;2022-12-07T08:18:51;18.33;;;12.43;;
2061;SDS011;11070;51.336;12.340;2022-12-07T08:21:16;18.93;;;12.77;;
2061;SDS011;11070;51.336;12.340;2022-12-07T08:23:42;19.47;;;13.07;;
2061;SDS011;11070;51.336;12.340;2022-12-07T08:26:11;19.85;;;12.73;;
2061;SDS011;11070;51.336;12.340;2022-12-07T08:28:38;18.83;;;12.52;;
2061;SDS011;11070;51.336;12.340;2022-12-07T08:31:05;18.58;;;12.43;;
2061;SDS011;11070;51.336;12.340;2022-12-07T08:33:35;20.70;;;11.98;;
2061;SDS011;11070;51.336;12.340;2022-12-07T08:36:02;20.00;;;12.93;;
2061;SDS011;11070;51.336;12.340;2022-12-07T08:38:30;18.65;;;13.20;;
2061;SDS011;11070;51.336;12.340;2022-12-07T08:40:56;19.13;;;12.25;;
2061;SDS011;11070;51.336;12.340;2022-12-07T08:43:23;16.55;;;10.68;;
2061;SDS011;11070;51.336;12.340;2022-12-07T08:48:40;19.25;;;11.00;;
2061;SDS011;11070;51.336;12.340;2022-12-07T08:51:09;18.83;;;10.90;;
2061;SDS011;11070;51.336;12.340;2022-12-07T08:53:35;20.90;;;12.40;;
2061;SDS011;11070;51.336;12.340;2022-12-07T08:56:03;21.20;;;13.15;;
2061;SDS011;11070;51.336;12.340;2022-12-07T08:58:29;19.60;;;13.52;;
2061;SDS011;11070;51.336;12.340;2022-12-07T09:00:56;19.92;;;12.27;;
2061;SDS011;11070;51.336;12.340;2022-12-07T09:03:21;17.17;;;11.23;;
2061;SDS011;11070;51.336;12.340;2022-12-07T09:05:47;22.17;;;14.90;;
2061;SDS011;11070;51.336;12.340;2022-12-07T09:08:13;22.10;;;13.93;;
2061;SDS011;11070;51.336;12.340;2022-12-07T09:10:39;18.50;;;13.37;;
2061;SDS011;11070;51.336;12.340;2022-12-07T09:13:04;24.10;;;13.73;;
2061;SDS011;11070;51.336;12.340;2022-12-07T09:15:30;23.80;;;14.07;;
2061;SDS011;11070;51.336;12.340;2022-12-07T09:17:56;26.65;;;15.10;;
2061;SDS011;11070;51.336;12.340;2022-12-07T09:20:22;20.77;;;13.63;;
2061;SDS011;11070;51.336;12.340;2022-12-07T09:22:48;16.92;;;11.05;;
2061;SDS011;11070;51.336;12.340;2022-12-07T09:25:14;17.10;;;11.00;;
2061;SDS011;11070;51.336;12.340;2022-12-07T09:27:40;26.35;;;12.63;;
2061;SDS011;11070;51.336;12.340;2022-12-07T09:30:07;20.48;;;12.20;;
2061;SDS011;11070;51.336;12.340;2022-12-07T09:32:33;20.10;;;12.57;;
2061;SDS011;11070;51.336;12.340;2022-12-07T09:34:59;18.30;;;12.30;;
2061;SDS011;11070;51.336;12.340;2022-12-07T09:37:24;19.85;;;12.65;;
2061;SDS011;11070;51.336;12.340;2022-12-07T09:39:50;21.00;;;13.67;;
2061;SDS011;11070;51.336;12.340;2022-12-07T09:42:23;22.40;;;12.93;;
2061;SDS011;11070;51.336;12.340;2022-12-07T09:44:50;21.48;;;13.80;;
2061;SDS011;11070;51.336;12.340;2022-12-07T09:47:16;19.90;;;12.40;;
2061;SDS011;11070;51.336;12.340;2022-12-07T09:49:42;19.50;;;13.40;;
2061;SDS011;11070;51.336;12.340;2022-12-07T09:54:35;28.70;;;13.63;;
2061;SDS011;11070;51.336;12.340;2022-12-07T09:57:04;19.42;;;12.88;;
2061;SDS011;11070;51.336;12.340;2022-12-07T09:59:30;21.47;;;13.23;;
2061;SDS011;11070;51.336;12.340;2022-12-07T10:01:55;18.33;;;12.13;;
2061;SDS011;11070;51.336;12.340;2022-12-07T10:04:47;22.30;;;12.95;;
2061;SDS011;11070;51.336;12.340;2022-12-07T10:07:13;21.70;;;13.07;;
2061;SDS011;11070;51.336;12.340;2022-12-07T10:09:38;20.53;;;13.10;;
2061;SDS011;11070;51.336;12.340;2022-12-07T10:12:06;18.30;;;12.53;;
2061;SDS011;11070;51.336;12.340;2022-12-07T10:14:38;19.10;;;12.07;;
2061;SDS011;11070;51.336;12.340;2022-12-07T10:19:56;22.60;;;13.70;;
2061;SDS011;11070;51.336;12.340;2022-12-07T10:22:57;20.48;;;13.82;;
2061;SDS011;11070;51.336;12.340;2022-12-07T10:25:25;21.08;;;13.02;;
2061;SDS011;11070;51.336;12.340;2022-12-07T10:30:32;19.08;;;12.60;;
2061;SDS011;11070;51.336;12.340;2022-12-07T10:35:56;16.25;;;10.15;;
2061;SDS011;11070;51.336;12.340;2022-12-07T10:38:24;15.30;;;9.60;;
2061;SDS011;11070;51.336;12.340;2022-12-07T10:41:03;14.63;;;9.80;;
2061;SDS011;11070;51.336;12.340;2022-12-07T10:43:30;18.50;;;10.48;;
2061;SDS011;11070;51.336;12.340;2022-12-07T11:05:26;11.43;;;8.45;;
2061;SDS011;11070;51.336;12.340;2022-12-07T11:08:01;13.85;;;8.80;;
2061;SDS011;11070;51.336;12.340;2022-12-07T11:10:39;15.13;;;8.30;;
2061;SDS011;11070;51.336;12.340;2022-12-07T11:19:10;16.10;;;10.00;;
2061;SDS011;11070;51.336;12.340;2022-12-07T11:26:48;17.23;;;11.00;;
2061;SDS011;11070;51.336;12.340;2022-12-07T11:37:35;22.38;;;11.63;;
2061;SDS011;11070;51.336;12.340;2022-12-07T11:42:46;18.20;;;10.35;;
2061;SDS011;11070;51.336;12.340;2022-12-07T11:45:29;18.33;;;11.60;;
2061;SDS011;11070;51.336;12.340;2022-12-07T11:48:02;15.60;;;9.85;;
2061;SDS011;11070;51.336;12.340;2022-12-07T11:50:42;14.20;;;10.13;;
2061;SDS011;11070;51.336;12.340;2022-12-07T11:53:19;12.27;;;8.15;;
2061;SDS011;11070;51.336;12.340;2022-12-07T11:56:09;12.77;;;8.45;;
2061;SDS011;11070;51.336;12.340;2022-12-07T12:03:42;10.90;;;7.55;;
2061;SDS011;11070;51.336;12.340;2022-12-07T12:06:11;13.13;;;8.00;;
2061;SDS011;11070;51.336;12.340;2022-12-07T12:08:46;11.73;;;7.80;;
2061;SDS011;11070;51.336;12.340;2022-12-07T12:14:12;10.45;;;7.80;;
2061;SDS011;11070;51.336;12.340;2022-12-07T12:17:01;7.70;;;5.88;;
2061;SDS011;11070;51.336;12.340;2022-12-07T12:20:03;8.63;;;5.65;;
2061;SDS011;11070;51.336;12.340;2022-12-07T12:22:58;7.20;;;6.07;;
2061;SDS011;11070;51.336;12.340;2022-12-07T12:25:34;10.50;;;7.68;;
2061;SDS011;11070;51.336;12.340;2022-12-07T12:33:49;8.55;;;6.25;;
2061;SDS011;11070;51.336;12.340;2022-12-07T12:36:22;11.75;;;7.25;;
2061;SDS011;11070;51.336;12.340;2022-12-07T12:46:47;5.60;;;4.60;;
2061;SDS011;11070;51.336;12.340;2022-12-07T12:54:20;7.32;;;5.13;;
2061;SDS011;11070;51.336;12.340;2022-12-07T12:56:51;6.05;;;4.60;;
2061;SDS011;11070;51.336;12.340;2022-12-07T12:59:33;5.20;;;4.30;;
2061;SDS011;11070;51.336;12.340;2022-12-07T13:04:50;5.93;;;3.92;;
2061;SDS011;11070;51.336;12.340;2022-12-07T13:26:22;7.70;;;4.60;;
2061;SDS011;11070;51.336;12.340;2022-12-07T13:28:49;7.40;;;3.55;;
2061;SDS011;11070;51.336;12.340;2022-12-07T13:31:31;3.47;;;3.17;;
2061;SDS011;11070;51.336;12.340;2022-12-07T13:33:58;4.15;;;3.42;;
2061;SDS011;11070;51.336;12.340;2022-12-07T13:36:33;4.43;;;3.40;;
2061;SDS011;11070;51.336;12.340;2022-12-07T13:39:20;4.65;;;3.88;;
2061;SDS011;11070;51.336;12.340;2022-12-07T13:41:55;7.38;;;3.47;;
2061;SDS011;11070;51.336;12.340;2022-12-07T13:44:23;6.10;;;3.50;;
2061;SDS011;11070;51.336;12.340;2022-12-07T13:49:46;4.13;;;2.97;;
2061;SDS011;11070;51.336;12.340;2022-12-07T13:57:24;4.32;;;3.53;;
2061;SDS011;11070;51.336;12.340;2022-12-07T13:59:51;5.55;;;3.80;;
2061;SDS011;11070;51.336;12.340;2022-12-07T14:02:25;5.55;;;2.90;;
2061;SDS011;11070;51.336;12.340;2022-12-07T14:05:09;7.57;;;2.90;;
2061;SDS011;11070;51.336;12.340;2022-12-07T14:10:41;5.57;;;3.15;;
2061;SDS011;11070;51.336;12.340;2022-12-07T14:13:38;3.80;;;3.20;;
2061;SDS011;11070;51.336;12.340;2022-12-07T14:19:02;4.63;;;3.58;;
2061;SDS011;11070;51.336;12.340;2022-12-07T14:21:31;7.13;;;3.92;;
2061;SDS011;11070;51.336;12.340;2022-12-07T14:26:44;5.07;;;2.90;;
2061;SDS011;11070;51.336;12.340;2022-12-07T14:29:48;4.30;;;3.00;;
2061;SDS011;11070;51.336;12.340;2022-12-07T14:32:16;3.08;;;2.88;;
2061;SDS011;11070;51.336;12.340;2022-12-07T14:34:58;3.30;;;3.00;;
2061;SDS011;11070;51.336;12.340;2022-12-07T14:37:26;7.50;;;3.20;;
2061;SDS011;11070;51.336;12.340;2022-12-07T14:39:53;9.43;;;3.10;;
2061;SDS011;11070;51.336;12.340;2022-12-07T14:42:20;7.07;;;3.90;;
2061;SDS011;11070;51.336;12.340;2022-12-07T14:44:48;3.08;;;2.70;;
2061;SDS011;11070;51.336;12.340;2022-12-07T14:47:14;4.50;;;3.13;;
2061;SDS011;11070;51.336;12.340;2022-12-07T14:49:40;4.35;;;3.40;;
2061;SDS011;11070;51.336;12.340;2022-12-07T14:52:07;10.17;;;6.10;;
2061;SDS011;11070;51.336;12.340;2022-12-07T14:54:44;8.38;;;3.95;;
2061;SDS011;11070;51.336;12.340;2022-12-07T14:57:10;6.13;;;3.33;;
2061;SDS011;11070;51.336;12.340;2022-12-07T14:59:36;6.15;;;5.00;;
2061;SDS011;11070;51.336;12.340;2022-12-07T15:02:03;6.32;;;3.85;;
2061;SDS011;11070;51.336;12.340;2022-12-07T15:04:29;4.60;;;3.45;;
2061;SDS011;11070;51.336;12.340;2022-12-07T15:07:00;5.53;;;3.35;;
2061;SDS011;11070;51.336;12.340;2022-12-07T15:09:28;5.10;;;3.33;;
2061;SDS011;11070;51.336;12.340;2022-12-07T15:11:53;4.90;;;3.60;;
2061;SDS011;11070;51.336;12.340;2022-12-07T15:14:19;3.43;;;3.13;;
2061;SDS011;11070;51.336;12.340;2022-12-07T15:16:45;4.82;;;3.20;;
2061;SDS011;11070;51.336;12.340;2022-12-07T15:19:12;6.50;;;3.47;;
2061;SDS011;11070;51.336;12.340;2022-12-07T15:21:43;8.50;;;4.22;;
2061;SDS011;11070;51.336;12.340;2022-12-07T15:24:10;4.10;;;3.40;;
2061;SDS011;11070;51.336;12.340;2022-12-07T15:26:37;6.35;;;3.15;;
2061;SDS011;11070;51.336;12.340;2022-12-07T15:29:04;7.68;;;3.50;;
2061;SDS011;11070;51.336;12.340;2022-12-07T15:31:31;7.95;;;4.50;;
2061;SDS011;11070;51.336;12.340;2022-12-07T15:33:58;4.63;;;3.20;;
2061;SDS011;11070;51.336;12.340;2022-12-07T15:36:25;3.67;;;3.13;;
2061;SDS011;11070;51.336;12.340;2022-12-07T15:38:53;10.82;;;6.68;;
2061;SDS011;11070;51.336;12.340;2022-12-07T15:41:22;7.90;;;4.72;;
2061;SDS011;11070;51.336;12.340;2022-12-07T15:43:49;6.25;;;4.75;;
2061;SDS011;11070;51.336;12.340;2022-12-07T15:46:36;6.43;;;4.85;;
2061;SDS011;11070;51.336;12.340;2022-12-07T15:49:06;6.72;;;5.72;;
2061;SDS011;11070;51.336;12.340;2022-12-07T15:51:42;4.35;;;3.70;;
2061;SDS011;11070;51.336;12.340;2022-12-07T15:54:27;8.60;;;4.05;;
2061;SDS011;11070;51.336;12.340;2022-12-07T15:56:57;9.02;;;5.68;;
2061;SDS011;11070;51.336;12.340;2022-12-07T15:59:27;7.00;;;4.78;;
2061;SDS011;11070;51.336;12.340;2022-12-07T16:01:54;6.97;;;4.90;;
2061;SDS011;11070;51.336;12.340;2022-12-07T16:04:20;7.45;;;5.05;;
2061;SDS011;11070;51.336;12.340;2022-12-07T16:06:46;8.10;;;4.90;;
2061;SDS011;11070;51.336;12.340;2022-12-07T16:09:12;8.47;;;5.73;;
2061;SDS011;11070;51.336;12.340;2022-12-07T16:11:38;11.43;;;7.97;;
2061;SDS011;11070;51.336;12.340;2022-12-07T16:14:03;8.10;;;6.00;;
2061;SDS011;11070;51.336;12.340;2022-12-07T16:16:29;6.80;;;5.50;;
2061;SDS011;11070;51.336;12.340;2022-12-07T16:18:55;5.30;;;4.80;;
2061;SDS011;11070;51.336;12.340;2022-12-07T16:21:22;5.70;;;4.65;;
2061;SDS011;11070;51.336;12.340;2022-12-07T16:23:48;10.33;;;6.10;;
2061;SDS011;11070;51.336;12.340;2022-12-07T16:26:14;7.93;;;6.03;;
2061;SDS011;11070;51.336;12.340;2022-12-07T16:28:45;7.75;;;5.90;;
2061;SDS011;11070;51.336;12.340;2022-12-07T16:31:16;7.40;;;6.30;;
2061;SDS011;11070;51.336;12.340;2022-12-07T16:33:44;14.02;;;11.00;;
2061;SDS011;11070;51.336;12.340;2022-12-07T16:36:10;10.15;;;8.88;;
2061;SDS011;11070;51.336;12.340;2022-12-07T16:38:38;11.35;;;7.30;;
2061;SDS011;11070;51.336;12.340;2022-12-07T16:41:05;7.45;;;5.78;;
2061;SDS011;11070;51.336;12.340;2022-12-07T16:43:32;4.45;;;4.05;;
2061;SDS011;11070;51.336;12.340;2022-12-07T16:45:58;9.93;;;7.63;;
2061;SDS011;11070;51.336;12.340;2022-12-07T16:48:24;8.27;;;4.80;;
2061;SDS011;11070;51.336;12.340;2022-12-07T16:50:49;6.80;;;6.10;;
2061;SDS011;11070;51.336;12.340;2022-12-07T16:53:18;6.65;;;5.85;;
2061;SDS011;11070;51.336;12.340;2022-12-07T16:55:44;6.28;;;4.43;;
2061;SDS011;11070;51.336;12.340;2022-12-07T16:58:11;6.25;;;5.50;;
2061;SDS011;11070;51.336;12.340;2022-12-07T17:00:38;10.05;;;6.88;;
2061;SDS011;11070;51.336;12.340;2022-12-07T17:03:05;8.88;;;6.75;;
2061;SDS011;11070;51.336;12.340;2022-12-07T17:05:31;13.15;;;7.50;;
2061;SDS011;11070;51.336;12.340;2022-12-07T17:07:57;9.27;;;6.70;;
2061;SDS011;11070;51.336;12.340;2022-12-07T17:10:24;8.25;;;6.45;;
2061;SDS011;11070;51.336;12.340;2022-12-07T17:12:50;15.02;;;6.55;;
2061;SDS011;11070;51.336;12.340;2022-12-07T17:15:16;9.90;;;6.87;;
2061;SDS011;11070;51.336;12.340;2022-12-07T17:17:46;11.40;;;6.35;;
2061;SDS011;11070;51.336;12.340;2022-12-07T17:20:20;7.80;;;6.28;;